Time;durP1;ratioP1;P1;durP2;ratioP2;P2;SDS_P1;SDS_P2;PMS_P1;PMS_P2;Temp;Humidity;BMP_temperature;BMP_pressure;BME280_temperature;BME280_humidity;BME280_pressure;Samples;Min_cycle;Max_cycle;Signal;HPM_P1;HPM_P2
2021/06/15 00:01:31;;;;;;;7.37;3.63;;;;;;;;;;5014416;28;20459;-67
2021/06/15 00:03:57;;;;;;;6.90;3.90;;;;;;;;;;5015415;28;20955;-67
2021/06/15 00:06:23;;;;;;;4.60;3.50;;;;;;;;;;4997390;28;20436;-67
2021/06/15 00:08:49;;;;;;;8.10;3.60;;;;;;;;;;4994713;28;20412;-67
2021/06/15 00:11:15;;;;;;;7.97;3.67;;;;;;;;;;4995145;28;20465;-67
2021/06/15 00:13:41;;;;;;;5.87;3.97;;;;;;;;;;4995294;28;20500;-67
2021/06/15 00:16:07;;;;;;;6.57;3.53;;;;;;;;;;5011349;28;20455;-67
2021/06/15 00:18:33;;;;;;;5.33;3.67;;;;;;;;;;5014991;28;20510;-67
2021/06/15 00:20:59;;;;;;;6.57;3.77;;;;;;;;;;5013971;28;20427;-67
2021/06/15 00:23:25;;;;;;;4.30;3.07;;;;;;;;;;5014597;28;20463;-67
2021/06/15 00:25:51;;;;;;;5.43;3.83;;;;;;;;;;5013488;28;20493;-67
2021/06/15 00:28:19;;;;;;;8.07;3.70;;;;;;;;;;5013544;28;20440;-67
2021/06/15 00:30:45;;;;;;;6.90;3.80;;;;;;;;;;5013744;28;20463;-67
2021/06/15 00:33:11;;;;;;;5.83;3.40;;;;;;;;;;5013174;28;20446;-67
2021/06/15 00:35:37;;;;;;;5.80;3.70;;;;;;;;;;5012879;28;20428;-67
2021/06/15 00:38:03;;;;;;;7.53;3.70;;;;;;;;;;5014471;28;20399;-67
2021/06/15 00:40:30;;;;;;;5.63;3.70;;;;;;;;;;5013517;28;20515;-67
2021/06/15 00:42:56;;;;;;;9.40;3.73;;;;;;;;;;5014580;28;20791;-67
2021/06/15 00:45:23;;;;;;;4.23;3.10;;;;;;;;;;5013324;28;20427;-67
2021/06/15 00:47:50;;;;;;;6.00;2.97;;;;;;;;;;5014248;28;20408;-67
2021/06/15 00:50:20;;;;;;;5.30;3.33;;;;;;;;;;5013261;28;20467;-67
2021/06/15 00:52:46;;;;;;;6.97;4.23;;;;;;;;;;5012756;28;20955;-67
2021/06/15 00:55:13;;;;;;;5.37;3.53;;;;;;;;;;5006447;28;20828;-67
2021/06/15 00:57:39;;;;;;;6.77;3.90;;;;;;;;;;4994457;28;20991;-67
2021/06/15 01:00:05;;;;;;;6.67;4.10;;;;;;;;;;4994411;28;20429;-67
2021/06/15 01:02:32;;;;;;;7.70;3.20;;;;;;;;;;4995185;28;20428;-67
2021/06/15 01:05:00;;;;;;;5.77;3.73;;;;;;;;;;5009051;28;20868;-67
2021/06/15 01:07:26;;;;;;;5.20;3.53;;;;;;;;;;5012234;28;20510;-67
2021/06/15 01:09:52;;;;;;;5.47;3.70;;;;;;;;;;5012707;28;21030;-67
2021/06/15 01:12:29;;;;;;;8.30;4.00;;;;;;;;;;5014093;28;20431;-67
2021/06/15 01:14:59;;;;;;;4.60;3.20;;;;;;;;;;5008983;28;20961;-67
2021/06/15 01:17:46;;;;;;;6.30;3.80;;;;;;;;;;4994195;28;20425;-67
2021/06/15 01:20:17;;;;;;;4.10;3.17;;;;;;;;;;4999387;28;20919;-67
2021/06/15 01:23:02;;;;;;;8.20;4.30;;;;;;;;;;5013722;28;20428;-67
2021/06/15 01:25:28;;;;;;;8.53;4.40;;;;;;;;;;5011798;28;20435;-67
2021/06/15 01:28:00;;;;;;;5.60;3.70;;;;;;;;;;5013682;28;20411;-67
2021/06/15 01:30:33;;;;;;;5.27;3.40;;;;;;;;;;5012849;28;20826;-67
2021/06/15 01:33:02;;;;;;;5.80;4.37;;;;;;;;;;5013757;28;20769;-67
2021/06/15 01:35:28;;;;;;;8.27;4.50;;;;;;;;;;5012333;28;20431;-67
2021/06/15 01:37:58;;;;;;;7.70;5.17;;;;;;;;;;5013393;28;20463;-67
2021/06/15 01:40:27;;;;;;;6.00;3.50;;;;;;;;;;5012710;28;20438;-67
2021/06/15 01:42:55;;;;;;;6.60;3.83;;;;;;;;;;5013336;28;20423;-67
2021/06/15 01:45:21;;;;;;;9.00;3.97;;;;;;;;;;5012858;28;20490;-67
2021/06/15 01:48:06;;;;;;;5.20;3.37;;;;;;;;;;4998452;28;20431;-67
2021/06/15 01:50:36;;;;;;;6.47;4.03;;;;;;;;;;5000467;28;21005;-67
2021/06/15 01:53:04;;;;;;;6.67;3.80;;;;;;;;;;5013057;28;20825;-67
2021/06/15 01:55:31;;;;;;;11.43;3.83;;;;;;;;;;5008730;28;20460;-67
2021/06/15 01:57:58;;;;;;;4.00;3.27;;;;;;;;;;5011625;28;20442;-67
2021/06/15 02:00:25;;;;;;;5.43;3.70;;;;;;;;;;5010067;28;20419;-67
2021/06/15 02:02:51;;;;;;;6.10;3.57;;;;;;;;;;4993676;28;20917;-67
2021/06/15 02:05:21;;;;;;;5.90;4.40;;;;;;;;;;4994095;28;20419;-67
2021/06/15 02:07:48;;;;;;;5.50;3.10;;;;;;;;;;4994004;28;20392;-67
2021/06/15 02:10:16;;;;;;;5.53;4.37;;;;;;;;;;4993478;28;20817;-66
2021/06/15 02:12:44;;;;;;;4.60;3.80;;;;;;;;;;5012981;28;20428;-67
2021/06/15 02:15:11;;;;;;;7.20;4.47;;;;;;;;;;5013460;28;20396;-67
2021/06/15 02:17:40;;;;;;;7.23;4.10;;;;;;;;;;5012219;28;20452;-67
2021/06/15 02:20:06;;;;;;;5.43;4.00;;;;;;;;;;5013093;28;20815;-67
2021/06/15 02:22:33;;;;;;;5.90;3.33;;;;;;;;;;5012320;28;20482;-67
2021/06/15 02:25:00;;;;;;;6.80;4.03;;;;;;;;;;5012338;28;20951;-67
2021/06/15 02:27:27;;;;;;;5.00;3.70;;;;;;;;;;5029576;28;20899;-67
2021/06/15 02:29:57;;;;;;;4.00;3.33;;;;;;;;;;5033041;28;20524;-67
2021/06/15 02:32:31;;;;;;;5.37;3.47;;;;;;;;;;5033044;28;20503;-67
2021/06/15 02:34:59;;;;;;;4.47;3.20;;;;;;;;;;5035910;28;20406;-67
2021/06/15 02:37:30;;;;;;;5.23;3.70;;;;;;;;;;5035514;28;20513;-67
2021/06/15 02:39:57;;;;;;;5.27;3.63;;;;;;;;;;5036955;28;20474;-67
2021/06/15 02:42:24;;;;;;;8.43;3.87;;;;;;;;;;5035123;28;20450;-67
2021/06/15 02:44:52;;;;;;;5.70;3.93;;;;;;;;;;5036590;28;20403;-67
2021/06/15 02:47:19;;;;;;;6.20;3.40;;;;;;;;;;5034584;28;20909;-67
2021/06/15 02:49:51;;;;;;;6.87;4.37;;;;;;;;;;5036787;28;20454;-67
2021/06/15 02:52:25;;;;;;;8.00;3.73;;;;;;;;;;5034098;28;20561;-67
2021/06/15 02:55:02;;;;;;;6.47;3.70;;;;;;;;;;5035283;28;20777;-67
2021/06/15 02:57:28;;;;;;;6.00;3.73;;;;;;;;;;5003168;28;20432;-67
2021/06/15 02:59:55;;;;;;;6.13;4.07;;;;;;;;;;4998838;28;20428;-67
2021/06/15 03:02:21;;;;;;;7.07;4.23;;;;;;;;;;4995342;28;20467;-67
2021/06/15 03:04:47;;;;;;;8.07;4.43;;;;;;;;;;4996790;28;20898;-67
2021/06/15 03:07:14;;;;;;;6.37;4.00;;;;;;;;;;5009915;28;20423;-67
2021/06/15 03:09:40;;;;;;;5.50;4.13;;;;;;;;;;5016415;28;20462;-67
2021/06/15 03:12:07;;;;;;;7.00;3.70;;;;;;;;;;5002954;28;20471;-67
2021/06/15 03:14:33;;;;;;;7.80;4.50;;;;;;;;;;4996441;28;20405;-67
2021/06/15 03:17:02;;;;;;;4.80;3.50;;;;;;;;;;4996484;28;20420;-67
2021/06/15 03:19:39;;;;;;;6.57;4.33;;;;;;;;;;4996369;28;20408;-67
2021/06/15 03:22:16;;;;;;;5.60;4.33;;;;;;;;;;5007564;28;20509;-67
2021/06/15 03:24:47;;;;;;;5.03;3.33;;;;;;;;;;5014500;28;20422;-67
2021/06/15 03:27:16;;;;;;;9.10;4.57;;;;;;;;;;5014553;28;20427;-67
2021/06/15 03:29:42;;;;;;;8.67;3.63;;;;;;;;;;5016087;28;20485;-66
2021/06/15 03:32:20;;;;;;;6.23;4.10;;;;;;;;;;5011292;28;20439;-67
2021/06/15 03:34:54;;;;;;;7.40;4.43;;;;;;;;;;5012529;28;20407;-67
2021/06/15 03:37:25;;;;;;;6.37;4.53;;;;;;;;;;5014717;28;20511;-67
2021/06/15 03:39:52;;;;;;;5.37;4.03;;;;;;;;;;5015499;28;20411;-67
2021/06/15 03:42:23;;;;;;;8.20;3.90;;;;;;;;;;5001340;28;20455;-67
2021/06/15 03:44:54;;;;;;;5.10;3.83;;;;;;;;;;4995546;28;20404;-67
2021/06/15 03:47:22;;;;;;;7.97;3.87;;;;;;;;;;5008550;28;20502;-67
2021/06/15 03:49:49;;;;;;;7.47;3.97;;;;;;;;;;5015333;28;20455;-67
2021/06/15 03:52:15;;;;;;;5.20;3.90;;;;;;;;;;5014507;28;20470;-67
2021/06/15 03:54:42;;;;;;;8.40;4.50;;;;;;;;;;5015725;28;20482;-67
2021/06/15 03:57:09;;;;;;;7.00;4.07;;;;;;;;;;5004148;28;20421;-67
2021/06/15 03:59:37;;;;;;;6.67;4.50;;;;;;;;;;4995623;28;20437;-67
2021/06/15 04:02:07;;;;;;;7.07;4.27;;;;;;;;;;5005248;28;20456;-67
2021/06/15 04:04:36;;;;;;;8.37;4.97;;;;;;;;;;5015741;28;20403;-67
2021/06/15 04:07:03;;;;;;;7.03;5.13;;;;;;;;;;5013296;28;20534;-67
2021/06/15 04:09:34;;;;;;;10.93;4.93;;;;;;;;;;5015183;28;20486;-67
2021/06/15 04:12:01;;;;;;;8.40;4.70;;;;;;;;;;5005377;28;20480;-66
2021/06/15 04:14:28;;;;;;;9.03;4.47;;;;;;;;;;4995665;28;20405;-66
2021/06/15 04:16:54;;;;;;;5.83;4.03;;;;;;;;;;5006403;28;20420;-66
2021/06/15 04:19:24;;;;;;;20.50;5.53;;;;;;;;;;5015077;28;20447;-66
2021/06/15 04:21:52;;;;;;;9.20;4.10;;;;;;;;;;5013833;28;20505;-66
2021/06/15 04:24:22;;;;;;;5.80;4.47;;;;;;;;;;5015000;28;20439;-67
2021/06/15 04:26:48;;;;;;;8.10;4.90;;;;;;;;;;5014353;28;20846;-67
2021/06/15 04:29:15;;;;;;;9.67;4.97;;;;;;;;;;5014098;28;20407;-67
2021/06/15 04:31:41;;;;;;;10.83;4.10;;;;;;;;;;5013840;28;20472;-67
2021/06/15 04:34:10;;;;;;;7.83;4.53;;;;;;;;;;5014938;28;20872;-67
2021/06/15 04:36:38;;;;;;;7.30;4.73;;;;;;;;;;5013893;28;20518;-67
2021/06/15 04:39:07;;;;;;;7.63;4.73;;;;;;;;;;5015048;28;20773;-67
2021/06/15 04:41:38;;;;;;;6.37;4.20;;;;;;;;;;5004359;28;20448;-67
2021/06/15 04:44:05;;;;;;;7.60;4.43;;;;;;;;;;5014721;28;20426;-67
2021/06/15 04:46:35;;;;;;;11.80;5.00;;;;;;;;;;5011338;28;20456;-67
2021/06/15 04:49:06;;;;;;;8.07;4.60;;;;;;;;;;4995297;28;20910;-67
2021/06/15 04:51:32;;;;;;;7.73;4.50;;;;;;;;;;4998136;28;20478;-67
2021/06/15 04:53:59;;;;;;;8.63;5.00;;;;;;;;;;5016222;28;20460;-67
2021/06/15 04:56:28;;;;;;;5.00;3.83;;;;;;;;;;5013541;28;20904;-67
2021/06/15 04:58:54;;;;;;;9.80;4.53;;;;;;;;;;4995883;28;20405;-67
2021/06/15 05:01:20;;;;;;;11.20;4.20;;;;;;;;;;4996270;28;20433;-68
2021/06/15 05:03:47;;;;;;;7.63;4.50;;;;;;;;;;5015412;28;20415;-67
2021/06/15 05:06:13;;;;;;;8.63;4.90;;;;;;;;;;5013856;28;20507;-69
2021/06/15 05:08:53;;;;;;;8.13;5.03;;;;;;;;;;5014804;28;20426;-67
2021/06/15 05:11:20;;;;;;;5.97;4.30;;;;;;;;;;5013772;28;20999;-68
2021/06/15 05:13:47;;;;;;;5.77;4.43;;;;;;;;;;5014238;28;20782;-67
2021/06/15 05:16:13;;;;;;;6.70;4.47;;;;;;;;;;5008922;28;20480;-67
2021/06/15 05:18:40;;;;;;;9.93;4.43;;;;;;;;;;4994836;28;20428;-67
2021/06/15 05:21:07;;;;;;;10.47;4.80;;;;;;;;;;4994423;28;20411;-67
2021/06/15 05:23:57;;;;;;;5.40;4.40;;;;;;;;;;4994518;28;20507;-67
2021/06/15 05:26:23;;;;;;;8.60;4.13;;;;;;;;;;4974997;28;20412;-68
2021/06/15 05:28:50;;;;;;;7.20;4.60;;;;;;;;;;4994544;28;20510;-67
2021/06/15 05:31:16;;;;;;;13.67;5.57;;;;;;;;;;4994426;28;20545;-67
2021/06/15 05:33:42;;;;;;;11.87;6.80;;;;;;;;;;5012182;28;20766;-67
2021/06/15 05:36:08;;;;;;;10.00;5.27;;;;;;;;;;5013877;28;20396;-67
2021/06/15 05:38:34;;;;;;;24.20;15.50;;;;;;;;;;5012969;28;20911;-67
2021/06/15 05:41:00;;;;;;;11.17;5.80;;;;;;;;;;5012391;28;20501;-66
2021/06/15 05:43:26;;;;;;;12.33;6.50;;;;;;;;;;5012652;28;20585;-67
2021/06/15 05:45:52;;;;;;;9.90;5.90;;;;;;;;;;5013933;28;20404;-67
2021/06/15 05:48:18;;;;;;;9.57;6.20;;;;;;;;;;5012061;28;20437;-67
2021/06/15 05:50:45;;;;;;;9.80;5.83;;;;;;;;;;5013110;28;21022;-67
2021/06/15 05:53:11;;;;;;;7.03;5.13;;;;;;;;;;4999817;28;20463;-67
2021/06/15 05:55:37;;;;;;;13.30;5.10;;;;;;;;;;4994582;28;20762;-67
2021/06/15 05:58:03;;;;;;;14.73;5.63;;;;;;;;;;5006425;28;20436;-67
2021/06/15 06:00:29;;;;;;;7.87;4.80;;;;;;;;;;5013888;28;20907;-67
2021/06/15 06:02:56;;;;;;;5.53;4.97;;;;;;;;;;5002689;28;20452;-66
2021/06/15 06:08:07;;;;;;;8.97;4.53;;;;;;;;;;5005749;28;20954;-67
2021/06/15 06:10:35;;;;;;;7.20;4.50;;;;;;;;;;5014579;28;20463;-67
2021/06/15 06:13:01;;;;;;;9.37;4.17;;;;;;;;;;5013622;28;20435;-67
2021/06/15 06:15:27;;;;;;;7.20;4.70;;;;;;;;;;5014154;28;20458;-67
2021/06/15 06:17:53;;;;;;;6.27;4.23;;;;;;;;;;5013787;28;20491;-67
2021/06/15 06:20:19;;;;;;;11.83;6.33;;;;;;;;;;5014200;28;20462;-67
2021/06/15 06:22:45;;;;;;;6.97;4.60;;;;;;;;;;5011747;28;20474;-66
2021/06/15 06:25:16;;;;;;;10.10;5.20;;;;;;;;;;5013894;28;20404;-66
2021/06/15 06:27:42;;;;;;;7.83;5.10;;;;;;;;;;5006284;28;20424;-66
2021/06/15 06:30:09;;;;;;;7.90;4.30;;;;;;;;;;5003822;28;20465;-66
2021/06/15 06:32:35;;;;;;;9.60;4.13;;;;;;;;;;5004582;28;20534;-63
2021/06/15 06:35:03;;;;;;;7.43;4.60;;;;;;;;;;5011890;28;20444;-62
2021/06/15 06:37:29;;;;;;;11.37;4.60;;;;;;;;;;5014757;28;20478;-62
2021/06/15 06:39:55;;;;;;;13.60;5.47;;;;;;;;;;5014270;28;20419;-62
2021/06/15 06:42:22;;;;;;;9.40;4.30;;;;;;;;;;5013152;28;20450;-61
2021/06/15 06:44:48;;;;;;;5.53;3.70;;;;;;;;;;5014332;28;20504;-63
2021/06/15 06:47:14;;;;;;;7.30;3.60;;;;;;;;;;5012150;28;20458;-64
2021/06/15 06:49:40;;;;;;;7.30;4.00;;;;;;;;;;5012782;28;20412;-66
2021/06/15 06:52:06;;;;;;;6.80;3.37;;;;;;;;;;5010598;28;20636;-66
2021/06/15 06:54:32;;;;;;;8.10;4.17;;;;;;;;;;5008366;28;20416;-71
2021/06/15 06:56:58;;;;;;;7.27;2.90;;;;;;;;;;5010778;28;20470;-73
2021/06/15 06:59:24;;;;;;;5.67;3.40;;;;;;;;;;5008867;28;20481;-71
2021/06/15 07:01:50;;;;;;;10.63;4.03;;;;;;;;;;5008290;28;20459;-70
2021/06/15 07:04:16;;;;;;;5.73;3.23;;;;;;;;;;5010902;28;20482;-70
2021/06/15 07:06:42;;;;;;;9.37;3.10;;;;;;;;;;5008014;28;20990;-68
2021/06/15 07:09:08;;;;;;;3.73;2.60;;;;;;;;;;5007556;28;20428;-68
2021/06/15 07:11:34;;;;;;;7.17;3.00;;;;;;;;;;5014604;28;20471;-71
2021/06/15 07:14:00;;;;;;;4.57;3.00;;;;;;;;;;5022370;28;20423;-71
2021/06/15 07:16:26;;;;;;;4.27;2.60;;;;;;;;;;5019096;28;20446;-71
2021/06/15 07:18:52;;;;;;;5.93;2.70;;;;;;;;;;5012182;28;20431;-67
2021/06/15 07:21:18;;;;;;;3.93;2.70;;;;;;;;;;5017019;28;20435;-66
2021/06/15 07:23:44;;;;;;;5.53;3.07;;;;;;;;;;5015998;28;20454;-67
2021/06/15 07:26:10;;;;;;;5.10;2.67;;;;;;;;;;5016196;28;20522;-72
2021/06/15 07:28:36;;;;;;;3.00;2.17;;;;;;;;;;5013302;28;20420;-72
2021/06/15 07:31:03;;;;;;;3.90;2.50;;;;;;;;;;5012901;28;20491;-70
2021/06/15 07:33:29;;;;;;;12.83;4.47;;;;;;;;;;5008246;28;20443;-74
2021/06/15 07:35:55;;;;;;;11.20;3.80;;;;;;;;;;5013484;28;20758;-75
2021/06/15 07:38:21;;;;;;;7.73;3.80;;;;;;;;;;5008939;28;20908;-71
2021/06/15 07:40:47;;;;;;;5.17;2.93;;;;;;;;;;5011179;28;21172;-71
2021/06/15 07:43:16;;;;;;;5.60;2.80;;;;;;;;;;5006175;28;20569;-70
2021/06/15 07:45:42;;;;;;;7.20;2.40;;;;;;;;;;5014975;28;20428;-69
2021/06/15 07:48:08;;;;;;;6.60;2.70;;;;;;;;;;5005555;28;20759;-74
2021/06/15 07:50:34;;;;;;;7.90;3.30;;;;;;;;;;5010161;28;20505;-74
2021/06/15 07:53:00;;;;;;;6.73;3.03;;;;;;;;;;5002939;28;20463;-73
2021/06/15 07:55:26;;;;;;;5.60;2.80;;;;;;;;;;5010797;28;20427;-68
2021/06/15 07:57:52;;;;;;;5.43;3.30;;;;;;;;;;5010912;28;20519;-72
2021/06/15 08:00:18;;;;;;;8.30;3.10;;;;;;;;;;5010838;28;20889;-69
2021/06/15 08:02:45;;;;;;;6.73;2.97;;;;;;;;;;5011535;28;20530;-70
2021/06/15 08:05:12;;;;;;;5.77;3.00;;;;;;;;;;5008448;28;20423;-70
2021/06/15 08:07:38;;;;;;;6.27;3.07;;;;;;;;;;5012048;28;20522;-68
2021/06/15 08:10:04;;;;;;;6.83;3.23;;;;;;;;;;5007411;28;20458;-68
2021/06/15 08:12:30;;;;;;;7.90;3.27;;;;;;;;;;5007346;28;20446;-69
2021/06/15 08:14:57;;;;;;;5.60;3.33;;;;;;;;;;5011741;28;20447;-69
2021/06/15 08:17:23;;;;;;;11.83;3.57;;;;;;;;;;5011015;28;20435;-69
2021/06/15 08:19:49;;;;;;;4.93;3.10;;;;;;;;;;5006511;28;20493;-69
2021/06/15 08:22:15;;;;;;;7.43;2.63;;;;;;;;;;5011996;28;20452;-69
2021/06/15 08:24:41;;;;;;;7.33;3.33;;;;;;;;;;5011118;28;20420;-70
2021/06/15 08:27:07;;;;;;;12.40;3.27;;;;;;;;;;5007151;28;20523;-69
2021/06/15 08:29:33;;;;;;;5.40;4.00;;;;;;;;;;5009575;28;20479;-72
2021/06/15 08:31:59;;;;;;;5.30;2.50;;;;;;;;;;5011897;28;20555;-69
2021/06/15 08:34:26;;;;;;;3.97;2.93;;;;;;;;;;5007521;28;20424;-69
2021/06/15 08:36:52;;;;;;;5.83;3.50;;;;;;;;;;5013773;28;20424;-68
2021/06/15 08:39:18;;;;;;;5.03;2.33;;;;;;;;;;5013692;28;20511;-69
2021/06/15 08:41:44;;;;;;;4.80;2.70;;;;;;;;;;5011120;28;20548;-70
2021/06/15 08:44:10;;;;;;;4.47;2.60;;;;;;;;;;5005412;28;20824;-69
2021/06/15 08:46:36;;;;;;;5.90;3.10;;;;;;;;;;5005386;28;20431;-68
2021/06/15 08:49:04;;;;;;;5.60;3.03;;;;;;;;;;5011430;28;20494;-69
2021/06/15 08:51:30;;;;;;;7.23;2.77;;;;;;;;;;5005628;28;20893;-71
2021/06/15 08:54:03;;;;;;;6.80;2.47;;;;;;;;;;5011916;28;20420;-71
2021/06/15 08:56:33;;;;;;;4.20;2.60;;;;;;;;;;5013876;28;20924;-69
2021/06/15 08:59:02;;;;;;;5.60;2.40;;;;;;;;;;5009533;28;20443;-70
2021/06/15 09:01:28;;;;;;;4.93;2.60;;;;;;;;;;5009214;28;20486;-70
2021/06/15 09:03:54;;;;;;;4.20;2.27;;;;;;;;;;5009500;28;20774;-70
2021/06/15 09:06:20;;;;;;;3.40;2.10;;;;;;;;;;5003675;28;20437;-71
2021/06/15 09:08:51;;;;;;;9.77;2.70;;;;;;;;;;5011451;28;20521;-68
2021/06/15 09:11:17;;;;;;;6.97;2.57;;;;;;;;;;5013466;28;20605;-70
2021/06/15 09:13:44;;;;;;;4.20;2.40;;;;;;;;;;5012423;28;20822;-69
2021/06/15 09:16:32;;;;;;;9.00;3.10;;;;;;;;;;5010767;28;20962;-72
2021/06/15 09:18:59;;;;;;;5.40;2.37;;;;;;;;;;5013470;28;20425;-70
2021/06/15 09:21:31;;;;;;;3.63;2.13;;;;;;;;;;5022564;28;20454;-71
2021/06/15 09:24:14;;;;;;;5.73;2.47;;;;;;;;;;5007829;28;20420;-68
2021/06/15 09:26:55;;;;;;;5.83;2.13;;;;;;;;;;5011447;28;20416;-68
2021/06/15 09:29:40;;;;;;;5.20;2.87;;;;;;;;;;5004934;28;20419;-67
2021/06/15 09:32:07;;;;;;;9.43;5.50;;;;;;;;;;5011059;28;20457;-67
2021/06/15 09:34:34;;;;;;;6.97;3.10;;;;;;;;;;5013719;28;20498;-67
2021/06/15 09:37:04;;;;;;;5.43;3.03;;;;;;;;;;5015081;28;20478;-68
2021/06/15 09:39:31;;;;;;;5.43;3.20;;;;;;;;;;5014667;28;20474;-69
2021/06/15 09:41:57;;;;;;;5.50;2.13;;;;;;;;;;5007830;28;20955;-69
2021/06/15 09:44:30;;;;;;;5.07;2.73;;;;;;;;;;5004191;28;20514;-69
2021/06/15 09:47:01;;;;;;;7.63;2.47;;;;;;;;;;5010410;28;20477;-70
2021/06/15 09:49:33;;;;;;;4.90;2.20;;;;;;;;;;5012735;28;20408;-67
2021/06/15 09:52:19;;;;;;;3.60;2.13;;;;;;;;;;5010610;28;20964;-70
2021/06/15 09:54:52;;;;;;;4.30;2.20;;;;;;;;;;5009538;28;20412;-70
2021/06/15 09:57:20;;;;;;;4.07;2.37;;;;;;;;;;5012916;28;20481;-72
2021/06/15 09:59:58;;;;;;;7.60;2.77;;;;;;;;;;5010605;28;20419;-71
2021/06/15 10:02:24;;;;;;;3.50;2.40;;;;;;;;;;5013087;28;20447;-70
2021/06/15 10:04:51;;;;;;;4.83;2.40;;;;;;;;;;5013321;28;20429;-71
2021/06/15 10:07:32;;;;;;;6.60;2.40;;;;;;;;;;5014363;28;20451;-71
2021/06/15 10:09:59;;;;;;;5.70;2.80;;;;;;;;;;5015343;28;20604;-71
2021/06/15 10:12:26;;;;;;;4.93;2.30;;;;;;;;;;5013187;28;20451;-70
2021/06/15 10:14:54;;;;;;;3.57;2.47;;;;;;;;;;5011275;28;20422;-72
2021/06/15 10:17:20;;;;;;;3.87;2.47;;;;;;;;;;5015655;28;20437;-70
2021/06/15 10:19:46;;;;;;;5.97;2.10;;;;;;;;;;5014629;28;20427;-71
2021/06/15 10:22:13;;;;;;;5.00;2.40;;;;;;;;;;5014931;28;20585;-70
2021/06/15 10:24:39;;;;;;;6.70;2.70;;;;;;;;;;5015209;28;20454;-70
2021/06/15 10:27:06;;;;;;;2.97;2.00;;;;;;;;;;5012940;28;20904;-70
2021/06/15 10:29:33;;;;;;;3.83;1.93;;;;;;;;;;5017134;28;20435;-71
2021/06/15 10:31:59;;;;;;;3.40;2.23;;;;;;;;;;5015629;28;20463;-71
2021/06/15 10:34:44;;;;;;;6.03;2.20;;;;;;;;;;5014897;28;20780;-69
2021/06/15 10:37:30;;;;;;;8.13;2.03;;;;;;;;;;5009949;28;20428;-70
2021/06/15 10:39:56;;;;;;;5.00;1.80;;;;;;;;;;5011337;28;20470;-71
2021/06/15 10:42:22;;;;;;;4.23;2.53;;;;;;;;;;5014691;28;20451;-71
2021/06/15 10:45:08;;;;;;;5.60;1.90;;;;;;;;;;5010359;28;21000;-70
2021/06/15 10:47:34;;;;;;;6.93;2.60;;;;;;;;;;5013103;28;20435;-70
2021/06/15 10:50:01;;;;;;;8.73;2.07;;;;;;;;;;5015548;28;20786;-70
2021/06/15 10:52:47;;;;;;;2.93;1.83;;;;;;;;;;5012634;28;20467;-71
2021/06/15 10:55:31;;;;;;;4.40;1.87;;;;;;;;;;5014567;28;20924;-71
2021/06/15 10:57:57;;;;;;;5.63;1.73;;;;;;;;;;5015481;28;20435;-71
2021/06/15 11:00:26;;;;;;;3.30;2.27;;;;;;;;;;5016273;28;20422;-71
2021/06/15 11:03:27;;;;;;;3.73;1.80;;;;;;;;;;5011373;28;20478;-70
2021/06/15 11:05:56;;;;;;;4.40;2.00;;;;;;;;;;4910621;29;20455;-71
2021/06/15 11:08:27;;;;;;;6.43;1.50;;;;;;;;;;4996042;28;20435;-71
2021/06/15 11:10:53;;;;;;;4.43;2.17;;;;;;;;;;5011928;28;20467;-70
2021/06/15 11:13:29;;;;;;;2.83;1.87;;;;;;;;;;5005741;28;20501;-70
2021/06/15 11:15:59;;;;;;;4.90;1.80;;;;;;;;;;5006596;28;21228;-71
2021/06/15 11:18:25;;;;;;;3.07;1.60;;;;;;;;;;5015753;28;20407;-71
2021/06/15 11:20:51;;;;;;;5.70;2.53;;;;;;;;;;5013086;28;20477;-70
2021/06/15 11:23:23;;;;;;;3.40;1.90;;;;;;;;;;5014799;28;20466;-71
2021/06/15 11:25:54;;;;;;;4.43;1.80;;;;;;;;;;5010630;28;20505;-72
2021/06/15 11:28:46;;;;;;;3.07;1.80;;;;;;;;;;5026657;28;20418;-74
2021/06/15 11:31:33;;;;;;;3.10;1.90;;;;;;;;;;4990273;28;20463;-74
2021/06/15 11:33:59;;;;;;;2.70;1.47;;;;;;;;;;5004917;28;20438;-73
2021/06/15 11:36:43;;;;;;;4.80;2.67;;;;;;;;;;5011429;28;20427;-72
2021/06/15 11:39:29;;;;;;;5.10;2.20;;;;;;;;;;5012791;28;20419;-69
2021/06/15 11:42:17;;;;;;;3.80;2.50;;;;;;;;;;5012544;28;20445;-72
2021/06/15 11:44:48;;;;;;;3.47;1.80;;;;;;;;;;5010231;28;20482;-71
2021/06/15 11:47:23;;;;;;;7.33;2.20;;;;;;;;;;5012368;28;20420;-68
2021/06/15 11:50:06;;;;;;;4.20;2.03;;;;;;;;;;5017321;28;20526;-67
2021/06/15 11:52:33;;;;;;;3.30;1.47;;;;;;;;;;5005920;28;20549;-71
2021/06/15 11:54:59;;;;;;;6.90;1.97;;;;;;;;;;5014636;28;20438;-70
2021/06/15 11:57:25;;;;;;;4.63;2.13;;;;;;;;;;5010007;28;20469;-71
2021/06/15 11:59:51;;;;;;;3.30;2.30;;;;;;;;;;5009206;28;20494;-70
2021/06/15 12:02:18;;;;;;;4.30;1.97;;;;;;;;;;5012290;28;20947;-71
2021/06/15 12:05:04;;;;;;;2.80;1.73;;;;;;;;;;5014148;28;20412;-69
2021/06/15 12:07:33;;;;;;;3.30;1.60;;;;;;;;;;5008971;28;20434;-71
2021/06/15 12:10:07;;;;;;;2.87;1.83;;;;;;;;;;5010568;28;20570;-71
2021/06/15 12:12:52;;;;;;;3.60;1.97;;;;;;;;;;5006647;28;20439;-72
2021/06/15 12:15:38;;;;;;;3.13;1.60;;;;;;;;;;5009397;28;20831;-71
2021/06/15 12:18:05;;;;;;;7.03;1.97;;;;;;;;;;5011838;28;20434;-72
2021/06/15 12:20:33;;;;;;;2.30;1.40;;;;;;;;;;5007863;28;20432;-73
2021/06/15 12:23:00;;;;;;;4.83;1.80;;;;;;;;;;5008845;28;20473;-70
2021/06/15 12:25:31;;;;;;;2.87;1.50;;;;;;;;;;5011040;28;20510;-68
2021/06/15 12:28:13;;;;;;;2.73;1.67;;;;;;;;;;5006280;28;20438;-68
2021/06/15 12:30:44;;;;;;;4.63;1.87;;;;;;;;;;5022034;28;20486;-68
2021/06/15 12:33:10;;;;;;;2.70;1.90;;;;;;;;;;5024609;28;20481;-68
2021/06/15 12:35:36;;;;;;;2.90;1.73;;;;;;;;;;5011180;28;20428;-67
2021/06/15 12:38:15;;;;;;;3.50;1.67;;;;;;;;;;5010307;28;20416;-68
2021/06/15 12:40:42;;;;;;;3.90;1.80;;;;;;;;;;5013599;28;20420;-68
2021/06/15 12:43:09;;;;;;;3.07;1.83;;;;;;;;;;5013751;28;20768;-67
2021/06/15 12:45:37;;;;;;;4.00;1.80;;;;;;;;;;5005513;28;20470;-69
2021/06/15 12:48:18;;;;;;;4.43;1.90;;;;;;;;;;5012734;28;20442;-67
2021/06/15 12:50:44;;;;;;;2.40;1.50;;;;;;;;;;5007158;28;20450;-69
2021/06/15 12:53:10;;;;;;;3.23;1.70;;;;;;;;;;5018991;28;20509;-70
2021/06/15 12:55:43;;;;;;;3.50;1.50;;;;;;;;;;5019154;28;20566;-72
2021/06/15 12:58:11;;;;;;;5.80;1.90;;;;;;;;;;5015705;28;20433;-71
2021/06/15 13:00:44;;;;;;;3.53;1.70;;;;;;;;;;5026023;28;20414;-71
2021/06/15 13:03:13;;;;;;;2.97;1.80;;;;;;;;;;5021004;28;20454;-69
2021/06/15 13:05:39;;;;;;;3.40;1.77;;;;;;;;;;5021250;28;20438;-68
2021/06/15 13:08:05;;;;;;;5.00;1.83;;;;;;;;;;5019125;28;20439;-69
2021/06/15 13:10:31;;;;;;;3.37;1.77;;;;;;;;;;5016260;28;20486;-69
2021/06/15 13:13:00;;;;;;;2.60;1.80;;;;;;;;;;5021894;28;20440;-69
2021/06/15 13:15:26;;;;;;;2.80;1.93;;;;;;;;;;5014709;28;20435;-68
2021/06/15 13:18:09;;;;;;;3.80;1.90;;;;;;;;;;5013101;28;20531;-73
2021/06/15 13:20:35;;;;;;;3.20;1.80;;;;;;;;;;5015161;28;20434;-71
2021/06/15 13:23:01;;;;;;;3.17;1.80;;;;;;;;;;5011657;28;20582;-72
2021/06/15 13:25:30;;;;;;;2.90;1.80;;;;;;;;;;5009446;28;20502;-72
2021/06/15 13:27:59;;;;;;;4.03;1.73;;;;;;;;;;5013787;28;20427;-72
2021/06/15 13:30:30;;;;;;;3.23;1.60;;;;;;;;;;5015621;28;20462;-72
2021/06/15 13:33:01;;;;;;;6.90;1.97;;;;;;;;;;5011218;28;20464;-71
2021/06/15 13:35:27;;;;;;;5.10;2.07;;;;;;;;;;5019253;28;20795;-69
2021/06/15 13:37:57;;;;;;;4.40;1.90;;;;;;;;;;5009736;28;20431;-71
2021/06/15 13:40:31;;;;;;;5.87;2.17;;;;;;;;;;5011558;28;20419;-71
2021/06/15 13:42:57;;;;;;;4.70;2.00;;;;;;;;;;5013824;28;20978;-72
2021/06/15 13:45:31;;;;;;;4.30;2.50;;;;;;;;;;5006331;28;20423;-71
2021/06/15 13:47:57;;;;;;;2.23;1.60;;;;;;;;;;5006182;28;20419;-71
2021/06/15 13:50:23;;;;;;;4.47;1.83;;;;;;;;;;5012013;28;20852;-70
2021/06/15 13:52:50;;;;;;;3.70;2.00;;;;;;;;;;5009471;28;20471;-70
2021/06/15 13:55:16;;;;;;;4.43;2.20;;;;;;;;;;5005414;28;20977;-71
2021/06/15 13:57:42;;;;;;;4.00;1.93;;;;;;;;;;5011544;28;20416;-71
2021/06/15 14:00:17;;;;;;;3.33;1.80;;;;;;;;;;5003289;28;20459;-72
2021/06/15 14:02:43;;;;;;;3.90;2.00;;;;;;;;;;4997865;28;20509;-69
2021/06/15 14:05:10;;;;;;;3.57;2.20;;;;;;;;;;5009453;28;22081;-69
2021/06/15 14:07:36;;;;;;;3.97;2.00;;;;;;;;;;5013880;28;20478;-70
2021/06/15 14:10:03;;;;;;;6.40;2.10;;;;;;;;;;5012257;28;21027;-71
2021/06/15 14:12:30;;;;;;;4.67;2.00;;;;;;;;;;5009105;28;20495;-69
2021/06/15 14:15:01;;;;;;;5.60;2.53;;;;;;;;;;5009013;28;20427;-70
2021/06/15 14:17:27;;;;;;;3.10;1.90;;;;;;;;;;5011320;28;20971;-70
2021/06/15 14:19:53;;;;;;;5.57;2.37;;;;;;;;;;5012684;28;20422;-71
2021/06/15 14:22:19;;;;;;;6.00;2.43;;;;;;;;;;5014192;28;20829;-68
2021/06/15 14:24:46;;;;;;;3.80;1.93;;;;;;;;;;5005127;28;20539;-69
2021/06/15 14:27:12;;;;;;;5.63;2.07;;;;;;;;;;5011007;28;20420;-69
2021/06/15 14:29:38;;;;;;;3.13;2.10;;;;;;;;;;5015131;28;20415;-69
2021/06/15 14:32:04;;;;;;;5.70;2.00;;;;;;;;;;5013270;28;20467;-70
2021/06/15 14:34:30;;;;;;;3.20;1.90;;;;;;;;;;5017863;28;20454;-69
2021/06/15 14:36:56;;;;;;;6.13;2.67;;;;;;;;;;5011625;28;20427;-70
2021/06/15 14:39:22;;;;;;;3.90;2.30;;;;;;;;;;5008098;28;20503;-70
2021/06/15 14:41:49;;;;;;;3.27;2.33;;;;;;;;;;5013351;28;20450;-70
2021/06/15 14:44:15;;;;;;;3.43;1.60;;;;;;;;;;5015957;28;20439;-71
2021/06/15 14:46:41;;;;;;;4.10;1.67;;;;;;;;;;5017736;28;20407;-70
2021/06/15 14:49:07;;;;;;;5.27;2.30;;;;;;;;;;5020006;28;20851;-70
2021/06/15 14:51:33;;;;;;;4.67;1.70;;;;;;;;;;5017248;28;20494;-70
2021/06/15 14:54:04;;;;;;;4.63;2.03;;;;;;;;;;5014707;28;20439;-70
2021/06/15 14:56:34;;;;;;;3.93;2.03;;;;;;;;;;5016261;28;20450;-69